createdAt,value
2023-05-02T00:01:32.840Z,1.50
2023-05-02T00:04:21.158Z,1.92
2023-05-02T00:07:08.914Z,2.33
2023-05-02T00:09:56.563Z,2.10
2023-05-02T00:12:44.253Z,2.13
2023-05-02T00:15:31.763Z,1.98
2023-05-02T00:18:19.915Z,2.50
2023-05-02T00:21:08.679Z,2.30
2023-05-02T00:23:57.351Z,2.33
2023-05-02T00:26:45.110Z,3.63
2023-05-02T00:29:32.762Z,2.13
2023-05-02T00:32:23.526Z,1.70
2023-05-02T00:35:11.318Z,1.30
2023-05-02T00:38:00.176Z,1.92
2023-05-02T00:40:50.103Z,1.42
2023-05-02T00:43:39.885Z,1.75
2023-05-02T00:46:28.069Z,1.10
2023-05-02T00:49:15.907Z,1.67
2023-05-02T00:52:03.668Z,1.50
2023-05-02T00:54:51.718Z,1.67
2023-05-02T00:57:39.323Z,1.40
2023-05-02T01:00:41.325Z,1.98
2023-05-02T01:03:37.664Z,1.25
2023-05-02T01:06:32.148Z,1.58
2023-05-02T01:09:40.434Z,1.70
2023-05-02T01:12:41.861Z,1.45
2023-05-02T01:15:31.893Z,1.43
2023-05-02T01:18:24.315Z,1.67
2023-05-02T01:21:13.052Z,1.95
2023-05-02T01:24:26.697Z,1.25
2023-05-02T01:27:29.147Z,1.45
2023-05-02T01:30:19.240Z,0.90
2023-05-02T01:33:10.795Z,0.90
2023-05-02T01:36:01.868Z,1.55
2023-05-02T01:38:50.868Z,1.30
2023-05-02T01:41:42.052Z,1.77
2023-05-02T01:44:31.281Z,1.83
2023-05-02T01:47:22.707Z,1.70
2023-05-02T01:50:17.091Z,1.90
2023-05-02T01:53:09.191Z,1.65
2023-05-02T01:58:52.991Z,1.90
2023-05-02T02:01:43.770Z,1.58
2023-05-02T02:04:33.470Z,1.50
2023-05-02T02:07:21.652Z,1.92
2023-05-02T02:10:09.576Z,2.50
2023-05-02T02:13:26.784Z,1.85
2023-05-02T02:16:21.952Z,2.10
2023-05-02T02:19:15.679Z,1.85
2023-05-02T02:22:05.504Z,1.38
2023-05-02T02:24:54.794Z,1.73
2023-05-02T02:27:43.324Z,1.30
2023-05-02T02:30:31.061Z,1.35
2023-05-02T02:33:20.844Z,2.22
2023-05-02T02:36:25.099Z,1.55
2023-05-02T02:39:27.747Z,1.85
2023-05-02T02:42:36.387Z,1.70
2023-05-02T02:45:32.557Z,2.15
2023-05-02T02:48:33.471Z,3.08
2023-05-02T02:51:32.368Z,2.22
2023-05-02T02:54:32.658Z,3.03
2023-05-02T02:57:35.978Z,2.80
2023-05-02T03:00:27.701Z,3.00
2023-05-02T03:03:16.699Z,2.40
2023-05-02T03:06:05.884Z,2.80
2023-05-02T03:08:53.882Z,2.45
2023-05-02T03:11:51.248Z,2.55
2023-05-02T03:14:40.015Z,2.95
2023-05-02T03:17:27.884Z,3.03
2023-05-02T03:20:21.801Z,2.72
2023-05-02T03:23:09.713Z,2.22
2023-05-02T03:25:57.425Z,2.50
2023-05-02T03:28:47.192Z,1.52
2023-05-02T03:31:40.354Z,2.22
2023-05-02T03:34:28.027Z,2.65
2023-05-02T03:37:16.423Z,2.28
2023-05-02T03:40:04.309Z,2.50
2023-05-02T03:42:52.021Z,2.35
2023-05-02T03:45:48.160Z,2.58
2023-05-02T03:48:41.944Z,2.13
2023-05-02T03:57:10.722Z,2.10
2023-05-02T04:00:01.312Z,2.05
2023-05-02T04:03:02.131Z,2.45
2023-05-02T04:05:51.903Z,2.55
2023-05-02T04:08:39.912Z,1.80
2023-05-02T04:11:27.797Z,2.72
2023-05-02T04:14:16.252Z,2.50
2023-05-02T04:17:05.220Z,1.50
2023-05-02T04:19:59.568Z,1.52
2023-05-02T04:22:50.804Z,1.40
2023-05-02T04:25:38.819Z,1.85
2023-05-02T04:28:26.605Z,1.35
2023-05-02T04:31:26.929Z,1.40
2023-05-02T04:34:28.611Z,2.17
2023-05-02T04:37:16.697Z,1.33
2023-05-02T04:40:07.037Z,1.92
2023-05-02T04:42:54.693Z,1.52
2023-05-02T04:45:45.170Z,1.88
2023-05-02T04:48:42.495Z,1.17
2023-05-02T04:51:30.866Z,2.00
2023-05-02T04:54:19.548Z,2.45
2023-05-02T04:57:08.263Z,1.60
2023-05-02T04:59:59.732Z,1.40
2023-05-02T05:02:48.426Z,1.98
2023-05-02T05:05:37.241Z,1.35
2023-05-02T05:08:27.835Z,1.60
2023-05-02T05:11:18.489Z,0.90
2023-05-02T05:14:06.313Z,2.00
2023-05-02T05:16:58.468Z,1.37
2023-05-02T05:19:46.866Z,1.80
2023-05-02T05:22:39.901Z,1.00
2023-05-02T05:25:30.312Z,1.33
2023-05-02T05:28:19.434Z,0.80
2023-05-02T05:31:09.587Z,1.30
2023-05-02T05:33:58.385Z,2.22
2023-05-02T05:36:49.848Z,1.02
2023-05-02T05:39:38.303Z,1.73
2023-05-02T05:42:27.327Z,0.82
2023-05-02T05:45:19.980Z,0.63
2023-05-02T05:48:08.207Z,0.60
2023-05-02T05:51:06.207Z,0.43
2023-05-02T05:56:41.846Z,0.55
2023-05-02T05:59:36.595Z,0.70
2023-05-02T06:02:25.614Z,1.05
2023-05-02T06:05:13.607Z,1.10
2023-05-02T06:08:01.338Z,0.85
2023-05-02T06:10:48.961Z,0.65
2023-05-02T06:13:36.695Z,1.05
2023-05-02T06:16:24.791Z,0.73
2023-05-02T06:19:12.577Z,0.90
2023-05-02T06:22:00.234Z,0.93
2023-05-02T06:24:48.062Z,0.60
2023-05-02T06:27:36.143Z,0.90
2023-05-02T06:30:23.902Z,1.33
2023-05-02T06:33:12.636Z,0.50
2023-05-02T06:36:01.858Z,0.28
2023-05-02T06:38:50.012Z,0.40
2023-05-02T06:41:37.716Z,0.63
2023-05-02T06:44:25.803Z,0.50
2023-05-02T06:47:13.558Z,1.00
2023-05-02T06:50:01.615Z,0.50
2023-05-02T06:52:49.642Z,0.55
2023-05-02T06:55:37.325Z,0.40
2023-05-02T06:58:25.089Z,0.77
2023-05-02T07:01:13.297Z,0.70
2023-05-02T07:04:04.691Z,0.47
2023-05-02T07:06:54.692Z,0.70
2023-05-02T07:09:42.414Z,0.82
2023-05-02T07:12:30.309Z,0.13
2023-05-02T07:15:18.295Z,0.40
2023-05-02T07:18:06.605Z,0.70
2023-05-02T07:20:55.369Z,0.45
2023-05-02T07:23:44.108Z,0.40
2023-05-02T07:26:31.671Z,0.47
2023-05-02T07:29:19.340Z,1.08
2023-05-02T07:32:07.122Z,0.50
2023-05-02T07:34:56.368Z,0.60
2023-05-02T07:37:44.096Z,0.40
2023-05-02T07:40:31.861Z,0.40
2023-05-02T07:43:19.505Z,0.35
2023-05-02T07:46:07.214Z,0.65
2023-05-02T07:48:54.987Z,0.60
2023-05-02T07:51:42.966Z,0.30
2023-05-02T07:54:30.629Z,0.35
2023-05-02T07:57:19.063Z,1.13
2023-05-02T08:00:10.392Z,0.40
2023-05-02T08:03:00.896Z,0.40
2023-05-02T08:05:48.778Z,0.47
2023-05-02T08:08:37.224Z,0.30
2023-05-02T08:11:25.814Z,0.50
2023-05-02T08:14:14.384Z,0.22
2023-05-02T08:17:02.024Z,0.70
2023-05-02T08:19:49.685Z,0.40
2023-05-02T08:22:37.694Z,0.55
2023-05-02T08:25:25.489Z,0.82
2023-05-02T08:28:13.447Z,0.60
2023-05-02T08:31:01.225Z,0.22
2023-05-02T08:33:49.128Z,0.50
2023-05-02T08:36:37.500Z,0.30
2023-05-02T08:39:25.127Z,0.30
2023-05-02T08:42:12.811Z,0.40
2023-05-02T08:45:01.546Z,0.20
2023-05-02T08:47:51.019Z,0.20
2023-05-02T08:50:45.658Z,0.40
2023-05-02T08:53:35.451Z,0.25
2023-05-02T08:56:23.720Z,0.30
2023-05-02T08:59:11.497Z,0.13
2023-05-02T09:02:09.059Z,0.30
2023-05-02T09:05:00.475Z,0.30
2023-05-02T09:10:37.850Z,0.10
2023-05-02T09:13:38.920Z,0.10
2023-05-02T09:16:27.453Z,0.10
2023-05-02T09:19:28.393Z,0.20
2023-05-02T09:22:24.133Z,0.10
2023-05-02T09:25:11.916Z,0.10
2023-05-02T09:28:02.026Z,0.40
2023-05-02T09:30:49.718Z,0.10
2023-05-02T09:33:39.092Z,0.20
2023-05-02T09:36:26.729Z,0.20
2023-05-02T09:39:20.150Z,0.20
2023-05-02T09:42:13.366Z,0.10
2023-05-02T09:45:01.361Z,0.45
2023-05-02T09:47:50.278Z,0.10
2023-05-02T09:50:40.211Z,0.10
2023-05-02T09:53:28.820Z,0.20
2023-05-02T09:56:17.846Z,0.22
2023-05-02T09:59:15.774Z,0.17
2023-05-02T10:02:04.950Z,0.10
2023-05-02T10:04:54.450Z,0.10
2023-05-02T10:07:42.255Z,0.22
2023-05-02T10:10:34.891Z,0.22
2023-05-02T10:13:27.317Z,0.30
2023-05-02T10:16:23.930Z,0.10
2023-05-02T10:19:13.501Z,0.30
2023-05-02T10:22:02.609Z,0.10
2023-05-02T10:24:50.886Z,0.10
2023-05-02T10:27:38.762Z,0.20
2023-05-02T10:30:27.162Z,0.10
2023-05-02T10:33:16.291Z,0.10
2023-05-02T10:36:04.650Z,0.20
2023-05-02T10:38:52.833Z,0.10
2023-05-02T10:41:42.230Z,0.00
2023-05-02T10:44:41.293Z,0.15
2023-05-02T10:47:29.140Z,0.10
2023-05-02T10:50:17.362Z,0.13
2023-05-02T10:53:23.465Z,0.38
2023-05-02T10:56:21.371Z,0.20
2023-05-02T10:59:41.599Z,0.55
2023-05-02T11:02:32.349Z,0.10
2023-05-02T11:05:20.168Z,0.10
2023-05-02T11:08:19.383Z,1.30
2023-05-02T11:11:56.675Z,0.15
2023-05-02T11:14:47.745Z,0.20
2023-05-02T11:18:12.210Z,0.32
2023-05-02T11:21:29.049Z,0.10
2023-05-02T11:24:45.422Z,0.05
2023-05-02T11:27:33.922Z,0.10
2023-05-02T11:30:41.906Z,0.10
2023-05-02T11:33:29.937Z,0.20
2023-05-02T11:36:31.198Z,0.10
2023-05-02T11:39:20.560Z,0.35
2023-05-02T11:42:08.314Z,0.13
2023-05-02T11:45:00.889Z,0.17
2023-05-02T11:47:49.670Z,0.20
2023-05-02T11:50:50.390Z,0.10
2023-05-02T11:53:41.674Z,0.10
2023-05-02T11:56:29.423Z,0.30
2023-05-02T11:59:17.197Z,0.10
2023-05-02T12:02:04.873Z,0.20
2023-05-02T12:04:52.563Z,0.20
2023-05-02T12:07:42.521Z,0.10
2023-05-02T12:10:37.948Z,0.28
2023-05-02T12:13:27.223Z,0.43
2023-05-02T12:16:15.498Z,0.22
2023-05-02T12:19:04.528Z,0.13
2023-05-02T12:21:53.124Z,0.10
2023-05-02T12:24:41.542Z,0.10
2023-05-02T12:27:29.666Z,0.10
2023-05-02T12:30:27.937Z,0.05
2023-05-02T12:33:17.432Z,0.08
2023-05-02T12:36:09.872Z,0.10
2023-05-02T12:39:02.843Z,0.10
2023-05-02T12:41:50.688Z,0.10
2023-05-02T12:44:40.874Z,0.00
2023-05-02T12:47:28.799Z,0.00
2023-05-02T12:50:16.805Z,0.10
2023-05-02T12:53:05.046Z,0.20
2023-05-02T12:56:04.010Z,0.10
2023-05-02T12:58:51.804Z,0.15
2023-05-02T13:01:39.591Z,0.05
2023-05-02T13:04:41.700Z,0.10
2023-05-02T13:07:29.585Z,0.10
2023-05-02T13:10:20.328Z,0.75
2023-05-02T13:13:08.022Z,0.38
2023-05-02T13:15:55.790Z,0.00
2023-05-02T13:18:45.448Z,0.20
2023-05-02T13:21:34.854Z,0.70
2023-05-02T13:24:22.562Z,0.03
2023-05-02T13:27:10.198Z,0.00
2023-05-02T13:30:02.717Z,0.13
2023-05-02T13:32:52.881Z,0.00
2023-05-02T13:35:40.671Z,0.17
2023-05-02T13:38:28.348Z,0.00
2023-05-02T13:41:16.085Z,0.20
2023-05-02T13:44:03.951Z,0.15
2023-05-02T13:46:51.640Z,0.43
2023-05-02T13:49:39.315Z,0.10
2023-05-02T13:52:27.033Z,0.10
2023-05-02T13:55:14.677Z,0.10
2023-05-02T13:58:02.920Z,0.10
2023-05-02T14:00:50.662Z,0.10
2023-05-02T14:03:38.357Z,0.35
2023-05-02T14:06:26.904Z,0.10
2023-05-02T14:09:15.860Z,0.20
2023-05-02T14:12:03.630Z,0.30
2023-05-02T14:14:51.254Z,0.20
2023-05-02T14:17:39.099Z,0.05
2023-05-02T14:20:26.849Z,0.10
2023-05-02T14:23:14.556Z,0.10
2023-05-02T14:26:02.870Z,0.10
2023-05-02T14:28:53.255Z,0.00
2023-05-02T14:31:41.461Z,0.47
2023-05-02T14:34:29.263Z,0.10
2023-05-02T14:37:16.930Z,0.10
2023-05-02T14:40:05.297Z,0.10
2023-05-02T14:42:53.132Z,0.03
2023-05-02T14:45:40.857Z,0.10
2023-05-02T14:48:28.544Z,0.20
2023-05-02T14:51:16.300Z,0.28
2023-05-02T14:54:05.397Z,0.10
2023-05-02T14:56:55.517Z,0.15
2023-05-02T14:59:45.776Z,0.10
2023-05-02T15:02:34.271Z,0.40
2023-05-02T15:05:22.129Z,0.30
2023-05-02T15:08:09.980Z,0.10
2023-05-02T15:10:58.875Z,0.28
2023-05-02T15:13:46.556Z,0.20
2023-05-02T15:16:34.596Z,0.47
2023-05-02T15:19:24.284Z,0.47
2023-05-02T15:22:12.111Z,0.20
2023-05-02T15:25:00.510Z,0.52
2023-05-02T15:27:48.892Z,0.08
2023-05-02T15:30:36.722Z,0.00
2023-05-02T15:33:24.544Z,0.10
2023-05-02T15:36:12.450Z,0.20
2023-05-02T15:39:00.198Z,0.40
2023-05-02T15:41:48.145Z,0.20
2023-05-02T15:44:39.113Z,0.10
2023-05-02T15:47:30.135Z,1.17
2023-05-02T15:50:24.414Z,0.35
2023-05-02T15:53:12.181Z,0.10
2023-05-02T15:55:59.918Z,0.30
2023-05-02T15:58:47.771Z,0.10
2023-05-02T16:01:35.611Z,0.10
2023-05-02T16:04:23.492Z,0.30
2023-05-02T16:07:11.671Z,0.28
2023-05-02T16:09:59.492Z,0.17
2023-05-02T16:12:47.294Z,0.10
2023-05-02T16:15:35.016Z,0.10
2023-05-02T16:18:28.658Z,0.10
2023-05-02T16:21:17.361Z,0.08
2023-05-02T16:24:05.835Z,0.10
2023-05-02T16:26:56.177Z,0.20
2023-05-02T16:32:37.603Z,0.10
2023-05-02T16:35:25.559Z,0.10
2023-05-02T16:38:13.388Z,0.10
2023-05-02T16:41:04.509Z,0.52
2023-05-02T16:43:52.245Z,0.30
2023-05-02T16:46:39.897Z,0.20
2023-05-02T16:49:27.642Z,0.77
2023-05-02T16:52:15.396Z,0.82
2023-05-02T16:55:03.036Z,0.47
2023-05-02T16:57:51.035Z,0.45
2023-05-02T17:00:40.602Z,0.40
2023-05-02T17:03:29.704Z,0.60
2023-05-02T17:06:17.785Z,0.10
2023-05-02T17:09:06.463Z,0.22
2023-05-02T17:11:54.110Z,1.02
2023-05-02T17:14:42.968Z,0.30
2023-05-02T17:17:31.194Z,0.38
2023-05-02T17:20:20.557Z,0.50
2023-05-02T17:23:09.390Z,0.20
2023-05-02T17:25:57.268Z,0.20
2023-05-02T17:28:46.088Z,0.20
2023-05-02T17:31:33.919Z,0.00
2023-05-02T17:34:26.176Z,0.90
2023-05-02T17:37:20.306Z,0.15
2023-05-02T17:40:08.716Z,0.20
2023-05-02T17:42:58.860Z,0.10
2023-05-02T17:45:46.757Z,0.20
2023-05-02T17:48:34.615Z,0.10
2023-05-02T17:51:23.384Z,0.20
2023-05-02T17:54:11.473Z,0.63
2023-05-02T17:56:59.406Z,0.30
2023-05-02T17:59:47.200Z,0.20
2023-05-02T18:02:37.528Z,0.10
2023-05-02T18:05:28.698Z,0.10
2023-05-02T18:08:16.892Z,0.10
2023-05-02T18:11:04.632Z,0.10
2023-05-02T18:13:52.692Z,0.10
2023-05-02T18:16:41.906Z,0.20
2023-05-02T18:19:29.749Z,0.10
2023-05-02T18:22:21.809Z,0.10
2023-05-02T18:25:09.788Z,0.10
2023-05-02T18:27:57.524Z,0.32
2023-05-02T18:30:45.282Z,0.10
2023-05-02T18:33:32.946Z,0.20
2023-05-02T18:36:29.906Z,0.45
2023-05-02T18:39:17.577Z,0.10
2023-05-02T18:42:05.712Z,0.20
2023-05-02T18:44:53.635Z,0.57
2023-05-02T18:47:44.135Z,0.30
2023-05-02T18:50:31.882Z,0.20
2023-05-02T18:53:22.849Z,0.20
2023-05-02T18:56:14.719Z,0.17
2023-05-02T18:59:02.426Z,0.10
2023-05-02T19:01:50.247Z,0.70
2023-05-02T19:04:38.052Z,0.40
2023-05-02T19:07:25.840Z,0.30
2023-05-02T19:10:13.621Z,0.10
2023-05-02T19:13:02.099Z,0.35
2023-05-02T19:15:49.870Z,0.30
2023-05-02T19:18:37.784Z,0.20
2023-05-02T19:21:26.043Z,0.30
2023-05-02T19:24:13.865Z,0.55
2023-05-02T19:27:01.616Z,0.47
2023-05-02T19:29:56.124Z,0.25
2023-05-02T19:32:43.946Z,0.43
2023-05-02T19:35:34.218Z,0.20
2023-05-02T19:38:22.274Z,0.30
2023-05-02T19:41:10.100Z,0.38
2023-05-02T19:43:59.133Z,0.20
2023-05-02T19:46:46.841Z,0.63
2023-05-02T19:49:34.710Z,0.30
2023-05-02T19:52:22.345Z,0.22
2023-05-02T19:55:10.188Z,0.25
2023-05-02T19:58:00.260Z,0.90
2023-05-02T20:00:50.309Z,0.15
2023-05-02T20:03:38.428Z,0.35
2023-05-02T20:06:26.749Z,0.32
2023-05-02T20:09:14.474Z,0.10
2023-05-02T20:12:02.213Z,0.52
2023-05-02T20:14:49.881Z,0.38
2023-05-02T20:17:37.738Z,0.28
2023-05-02T20:20:25.606Z,0.20
2023-05-02T20:23:13.771Z,0.10
2023-05-02T20:26:01.460Z,0.10
2023-05-02T20:28:49.072Z,0.13
2023-05-02T20:31:36.915Z,0.20
2023-05-02T20:34:24.612Z,0.10
2023-05-02T20:37:12.867Z,0.68
2023-05-02T20:40:05.638Z,0.10
2023-05-02T20:42:54.842Z,0.30
2023-05-02T20:45:42.661Z,0.20
2023-05-02T20:48:30.453Z,0.10
2023-05-02T20:51:18.107Z,0.20
2023-05-02T20:54:05.909Z,0.13
2023-05-02T20:56:53.667Z,0.20
2023-05-02T20:59:44.484Z,0.20
2023-05-02T21:02:32.419Z,0.30
2023-05-02T21:05:22.058Z,0.52
2023-05-02T21:08:09.776Z,0.90
2023-05-02T21:10:57.452Z,0.20
2023-05-02T21:13:45.138Z,0.38
2023-05-02T21:16:36.917Z,0.30
2023-05-02T21:19:24.668Z,0.10
2023-05-02T21:22:12.404Z,0.20
2023-05-02T21:25:05.978Z,0.40
2023-05-02T21:27:53.704Z,0.10
2023-05-02T21:30:41.454Z,0.10
2023-05-02T21:33:29.286Z,0.20
2023-05-02T21:36:16.934Z,0.05
2023-05-02T21:39:05.636Z,0.35
2023-05-02T21:41:53.405Z,0.13
2023-05-02T21:44:41.147Z,0.00
2023-05-02T21:47:28.882Z,0.20
2023-05-02T21:50:16.625Z,0.10
2023-05-02T21:53:04.349Z,0.25
2023-05-02T21:55:52.690Z,0.22
2023-05-02T21:58:40.390Z,0.10
2023-05-02T22:01:28.189Z,0.30
2023-05-02T22:04:16.505Z,0.28
2023-05-02T22:07:04.281Z,0.70
2023-05-02T22:09:52.011Z,0.10
2023-05-02T22:12:39.673Z,0.35
2023-05-02T22:15:27.598Z,0.47
2023-05-02T22:18:16.998Z,0.20
2023-05-02T22:21:04.752Z,0.20
2023-05-02T22:23:52.392Z,0.28
2023-05-02T22:26:40.175Z,0.20
2023-05-02T22:29:27.954Z,0.35
2023-05-02T22:32:15.841Z,0.13
2023-05-02T22:35:05.374Z,0.65
2023-05-02T22:37:53.023Z,0.13
2023-05-02T22:40:41.247Z,0.17
2023-05-02T22:43:28.957Z,0.52
2023-05-02T22:46:17.558Z,0.40
2023-05-02T22:49:06.346Z,0.50
2023-05-02T22:51:58.189Z,0.30
2023-05-02T22:54:46.019Z,0.30
2023-05-02T22:57:33.752Z,0.30
2023-05-02T23:00:24.028Z,0.90
2023-05-02T23:03:12.152Z,0.10
2023-05-02T23:06:00.152Z,0.40
2023-05-02T23:08:47.970Z,0.15
2023-05-02T23:11:35.662Z,0.65
2023-05-02T23:14:23.634Z,0.55
2023-05-02T23:17:11.400Z,0.20
2023-05-02T23:20:02.128Z,0.43
2023-05-02T23:22:50.132Z,0.20
2023-05-02T23:25:38.925Z,0.30
2023-05-02T23:28:26.624Z,0.40
2023-05-02T23:31:14.515Z,0.10
2023-05-02T23:34:02.372Z,0.32
2023-05-02T23:36:52.841Z,0.17
2023-05-02T23:39:41.228Z,0.10
2023-05-02T23:42:30.300Z,0.43
2023-05-02T23:45:18.028Z,0.40
2023-05-02T23:48:06.081Z,0.17
2023-05-02T23:50:54.288Z,0.70
2023-05-02T23:53:42.010Z,0.20
2023-05-02T23:56:29.741Z,0.20
2023-05-02T23:59:17.542Z,0.28
